sensor_id;sensor_type;location;lat;lon;timestamp;P1;durP1;ratioP1;P2;durP2;ratioP2
15608;SDS011;64278;45.642;13.756;2023-05-27T00:02:02;6.72;;;6.13;;
15608;SDS011;64278;45.642;13.756;2023-05-27T00:04:28;6.70;;;6.07;;
15608;SDS011;64278;45.642;13.756;2023-05-27T00:06:54;6.65;;;6.05;;
15608;SDS011;64278;45.642;13.756;2023-05-27T00:09:20;6.68;;;6.18;;
15608;SDS011;64278;45.642;13.756;2023-05-27T00:11:45;6.50;;;6.00;;
15608;SDS011;64278;45.642;13.756;2023-05-27T00:14:11;6.30;;;5.80;;
15608;SDS011;64278;45.642;13.756;2023-05-27T00:16:36;6.72;;;6.22;;
15608;SDS011;64278;45.642;13.756;2023-05-27T00:19:02;5.97;;;5.47;;
15608;SDS011;64278;45.642;13.756;2023-05-27T00:21:29;6.88;;;6.28;;
15608;SDS011;64278;45.642;13.756;2023-05-27T00:23:54;6.63;;;6.13;;
15608;SDS011;64278;45.642;13.756;2023-05-27T00:26:22;7.30;;;6.70;;
15608;SDS011;64278;45.642;13.756;2023-05-27T00:28:49;6.95;;;6.35;;
15608;SDS011;64278;45.642;13.756;2023-05-27T00:31:14;6.78;;;6.18;;
15608;SDS011;64278;45.642;13.756;2023-05-27T00:33:40;6.35;;;5.85;;
15608;SDS011;64278;45.642;13.756;2023-05-27T00:36:08;6.72;;;6.13;;
15608;SDS011;64278;45.642;13.756;2023-05-27T00:38:34;6.05;;;5.55;;
15608;SDS011;64278;45.642;13.756;2023-05-27T00:41:00;7.10;;;6.40;;
15608;SDS011;64278;45.642;13.756;2023-05-27T00:43:28;6.78;;;6.18;;
15608;SDS011;64278;45.642;13.756;2023-05-27T00:45:56;5.72;;;5.25;;
15608;SDS011;64278;45.642;13.756;2023-05-27T00:48:21;6.10;;;5.60;;
15608;SDS011;64278;45.642;13.756;2023-05-27T00:50:47;5.68;;;5.28;;
15608;SDS011;64278;45.642;13.756;2023-05-27T00:53:13;5.97;;;5.40;;
15608;SDS011;64278;45.642;13.756;2023-05-27T00:55:40;6.45;;;5.95;;
15608;SDS011;64278;45.642;13.756;2023-05-27T00:58:06;6.50;;;5.93;;
15608;SDS011;64278;45.642;13.756;2023-05-27T01:00:34;6.53;;;5.93;;
15608;SDS011;64278;45.642;13.756;2023-05-27T01:03:02;6.93;;;6.30;;
15608;SDS011;64278;45.642;13.756;2023-05-27T01:05:28;6.15;;;5.65;;
15608;SDS011;64278;45.642;13.756;2023-05-27T01:10:50;6.18;;;5.68;;
15608;SDS011;64278;45.642;13.756;2023-05-27T01:16:11;6.10;;;5.60;;
15608;SDS011;64278;45.642;13.756;2023-05-27T01:18:39;5.88;;;5.38;;
15608;SDS011;64278;45.642;13.756;2023-05-27T01:21:10;6.15;;;5.45;;
15608;SDS011;64278;45.642;13.756;2023-05-27T01:23:43;6.65;;;6.05;;
15608;SDS011;64278;45.642;13.756;2023-05-27T01:26:09;6.65;;;6.15;;
15608;SDS011;64278;45.642;13.756;2023-05-27T01:28:35;6.30;;;5.80;;
15608;SDS011;64278;45.642;13.756;2023-05-27T01:31:12;6.43;;;5.93;;
15608;SDS011;64278;45.642;13.756;2023-05-27T01:33:42;6.20;;;5.80;;
15608;SDS011;64278;45.642;13.756;2023-05-27T01:36:20;6.68;;;6.07;;
15608;SDS011;64278;45.642;13.756;2023-05-27T01:38:49;5.75;;;5.30;;
15608;SDS011;64278;45.642;13.756;2023-05-27T01:41:16;6.70;;;6.18;;
15608;SDS011;64278;45.642;13.756;2023-05-27T01:43:43;5.80;;;5.35;;
15608;SDS011;64278;45.642;13.756;2023-05-27T01:46:09;6.07;;;5.68;;
15608;SDS011;64278;45.642;13.756;2023-05-27T01:48:35;6.13;;;5.55;;
15608;SDS011;64278;45.642;13.756;2023-05-27T01:51:01;5.93;;;5.43;;
15608;SDS011;64278;45.642;13.756;2023-05-27T01:53:27;7.25;;;6.65;;
15608;SDS011;64278;45.642;13.756;2023-05-27T01:55:52;6.05;;;5.53;;
15608;SDS011;64278;45.642;13.756;2023-05-27T01:58:18;5.70;;;5.20;;
15608;SDS011;64278;45.642;13.756;2023-05-27T02:00:44;6.40;;;5.90;;
15608;SDS011;64278;45.642;13.756;2023-05-27T02:03:09;6.75;;;6.05;;
15608;SDS011;64278;45.642;13.756;2023-05-27T02:05:35;5.90;;;5.50;;
15608;SDS011;64278;45.642;13.756;2023-05-27T02:08:01;5.63;;;5.13;;
15608;SDS011;64278;45.642;13.756;2023-05-27T02:10:28;6.38;;;5.78;;
15608;SDS011;64278;45.642;13.756;2023-05-27T02:12:53;5.93;;;5.45;;
15608;SDS011;64278;45.642;13.756;2023-05-27T02:15:19;5.78;;;5.28;;
15608;SDS011;64278;45.642;13.756;2023-05-27T02:17:48;6.15;;;5.65;;
15608;SDS011;64278;45.642;13.756;2023-05-27T02:20:20;5.18;;;4.78;;
15608;SDS011;64278;45.642;13.756;2023-05-27T02:22:46;6.18;;;5.68;;
15608;SDS011;64278;45.642;13.756;2023-05-27T02:25:12;5.60;;;5.20;;
15608;SDS011;64278;45.642;13.756;2023-05-27T02:27:37;6.15;;;5.65;;
15608;SDS011;64278;45.642;13.756;2023-05-27T02:30:03;5.50;;;5.10;;
15608;SDS011;64278;45.642;13.756;2023-05-27T02:32:30;5.53;;;5.10;;
15608;SDS011;64278;45.642;13.756;2023-05-27T02:34:56;6.55;;;6.05;;
15608;SDS011;64278;45.642;13.756;2023-05-27T02:37:22;6.25;;;5.65;;
15608;SDS011;64278;45.642;13.756;2023-05-27T02:39:49;5.65;;;5.15;;
15608;SDS011;64278;45.642;13.756;2023-05-27T02:42:15;5.95;;;5.47;;
15608;SDS011;64278;45.642;13.756;2023-05-27T02:44:40;5.40;;;4.97;;
15608;SDS011;64278;45.642;13.756;2023-05-27T02:47:06;5.80;;;5.30;;
15608;SDS011;64278;45.642;13.756;2023-05-27T02:49:31;5.82;;;5.30;;
15608;SDS011;64278;45.642;13.756;2023-05-27T02:51:57;5.45;;;5.05;;
15608;SDS011;64278;45.642;13.756;2023-05-27T02:54:23;5.85;;;5.40;;
15608;SDS011;64278;45.642;13.756;2023-05-27T02:56:48;6.15;;;5.65;;
15608;SDS011;64278;45.642;13.756;2023-05-27T02:59:14;5.65;;;5.22;;
15608;SDS011;64278;45.642;13.756;2023-05-27T03:01:40;6.35;;;5.75;;
15608;SDS011;64278;45.642;13.756;2023-05-27T03:04:05;6.13;;;5.63;;
15608;SDS011;64278;45.642;13.756;2023-05-27T03:06:31;5.60;;;5.20;;
15608;SDS011;64278;45.642;13.756;2023-05-27T03:08:57;5.60;;;5.20;;
15608;SDS011;64278;45.642;13.756;2023-05-27T03:11:22;5.75;;;5.30;;
15608;SDS011;64278;45.642;13.756;2023-05-27T03:13:48;5.85;;;5.30;;
15608;SDS011;64278;45.642;13.756;2023-05-27T03:16:14;5.43;;;4.93;;
15608;SDS011;64278;45.642;13.756;2023-05-27T03:18:39;6.50;;;5.97;;
15608;SDS011;64278;45.642;13.756;2023-05-27T03:21:05;5.97;;;5.47;;
15608;SDS011;64278;45.642;13.756;2023-05-27T03:23:31;5.97;;;5.47;;
15608;SDS011;64278;45.642;13.756;2023-05-27T03:25:56;6.25;;;5.65;;
15608;SDS011;64278;45.642;13.756;2023-05-27T03:28:22;6.00;;;5.18;;
15608;SDS011;64278;45.642;13.756;2023-05-27T03:30:48;6.25;;;5.75;;
15608;SDS011;64278;45.642;13.756;2023-05-27T03:33:14;6.05;;;5.45;;
15608;SDS011;64278;45.642;13.756;2023-05-27T03:35:39;5.65;;;5.15;;
15608;SDS011;64278;45.642;13.756;2023-05-27T03:38:05;5.88;;;5.38;;
15608;SDS011;64278;45.642;13.756;2023-05-27T03:40:31;6.07;;;5.47;;
15608;SDS011;64278;45.642;13.756;2023-05-27T03:42:56;5.13;;;4.72;;
15608;SDS011;64278;45.642;13.756;2023-05-27T03:45:22;5.28;;;4.88;;
15608;SDS011;64278;45.642;13.756;2023-05-27T03:47:47;5.45;;;5.00;;
15608;SDS011;64278;45.642;13.756;2023-05-27T03:50:13;5.75;;;5.30;;
15608;SDS011;64278;45.642;13.756;2023-05-27T03:52:39;5.43;;;5.03;;
15608;SDS011;64278;45.642;13.756;2023-05-27T03:55:05;5.05;;;4.65;;
15608;SDS011;64278;45.642;13.756;2023-05-27T03:57:31;5.47;;;5.07;;
15608;SDS011;64278;45.642;13.756;2023-05-27T03:59:56;5.57;;;5.07;;
15608;SDS011;64278;45.642;13.756;2023-05-27T04:02:22;5.40;;;4.90;;
15608;SDS011;64278;45.642;13.756;2023-05-27T04:04:48;6.07;;;5.45;;
15608;SDS011;64278;45.642;13.756;2023-05-27T04:07:13;5.80;;;5.20;;
15608;SDS011;64278;45.642;13.756;2023-05-27T04:09:40;5.40;;;5.00;;
15608;SDS011;64278;45.642;13.756;2023-05-27T04:12:05;5.75;;;5.25;;
15608;SDS011;64278;45.642;13.756;2023-05-27T04:14:32;5.30;;;4.90;;
15608;SDS011;64278;45.642;13.756;2023-05-27T04:16:58;5.28;;;4.70;;
15608;SDS011;64278;45.642;13.756;2023-05-27T04:19:23;5.63;;;5.20;;
15608;SDS011;64278;45.642;13.756;2023-05-27T04:21:49;6.65;;;6.10;;
15608;SDS011;64278;45.642;13.756;2023-05-27T04:24:15;5.85;;;5.32;;
15608;SDS011;64278;45.642;13.756;2023-05-27T04:26:41;5.80;;;5.30;;
15608;SDS011;64278;45.642;13.756;2023-05-27T04:29:07;5.22;;;4.72;;
15608;SDS011;64278;45.642;13.756;2023-05-27T04:31:36;5.85;;;5.35;;
15608;SDS011;64278;45.642;13.756;2023-05-27T04:34:02;5.68;;;5.22;;
15608;SDS011;64278;45.642;13.756;2023-05-27T04:36:28;5.75;;;5.30;;
15608;SDS011;64278;45.642;13.756;2023-05-27T04:38:58;5.88;;;5.28;;
15608;SDS011;64278;45.642;13.756;2023-05-27T04:41:24;6.22;;;5.63;;
15608;SDS011;64278;45.642;13.756;2023-05-27T04:43:53;5.45;;;5.05;;
15608;SDS011;64278;45.642;13.756;2023-05-27T04:46:27;5.47;;;4.97;;
15608;SDS011;64278;45.642;13.756;2023-05-27T04:48:53;5.65;;;5.15;;
15608;SDS011;64278;45.642;13.756;2023-05-27T04:51:19;5.50;;;5.10;;
15608;SDS011;64278;45.642;13.756;2023-05-27T04:53:45;5.85;;;5.35;;
15608;SDS011;64278;45.642;13.756;2023-05-27T04:56:13;6.28;;;5.78;;
15608;SDS011;64278;45.642;13.756;2023-05-27T04:58:40;5.75;;;5.22;;
15608;SDS011;64278;45.642;13.756;2023-05-27T05:01:08;5.53;;;5.10;;
15608;SDS011;64278;45.642;13.756;2023-05-27T05:03:45;6.32;;;5.72;;
15608;SDS011;64278;45.642;13.756;2023-05-27T05:06:21;6.40;;;5.80;;
15608;SDS011;64278;45.642;13.756;2023-05-27T05:08:47;6.05;;;5.55;;
15608;SDS011;64278;45.642;13.756;2023-05-27T05:11:13;5.30;;;4.90;;
15608;SDS011;64278;45.642;13.756;2023-05-27T05:13:39;5.57;;;4.95;;
15608;SDS011;64278;45.642;13.756;2023-05-27T05:16:05;7.72;;;5.60;;
15608;SDS011;64278;45.642;13.756;2023-05-27T05:18:31;5.85;;;5.35;;
15608;SDS011;64278;45.642;13.756;2023-05-27T05:20:57;6.28;;;5.45;;
15608;SDS011;64278;45.642;13.756;2023-05-27T05:23:22;5.82;;;5.35;;
15608;SDS011;64278;45.642;13.756;2023-05-27T05:25:48;5.72;;;5.20;;
15608;SDS011;64278;45.642;13.756;2023-05-27T05:28:19;6.22;;;5.63;;
15608;SDS011;64278;45.642;13.756;2023-05-27T05:30:45;5.63;;;4.78;;
15608;SDS011;64278;45.642;13.756;2023-05-27T05:33:11;5.90;;;5.40;;
15608;SDS011;64278;45.642;13.756;2023-05-27T05:35:37;9.07;;;5.22;;
15608;SDS011;64278;45.642;13.756;2023-05-27T05:38:02;5.57;;;5.07;;
15608;SDS011;64278;45.642;13.756;2023-05-27T05:40:28;6.05;;;5.55;;
15608;SDS011;64278;45.642;13.756;2023-05-27T05:42:53;5.60;;;5.10;;
15608;SDS011;64278;45.642;13.756;2023-05-27T05:45:19;5.47;;;4.97;;
15608;SDS011;64278;45.642;13.756;2023-05-27T05:47:45;5.38;;;4.88;;
15608;SDS011;64278;45.642;13.756;2023-05-27T05:50:11;5.43;;;4.95;;
15608;SDS011;64278;45.642;13.756;2023-05-27T05:52:36;5.47;;;4.97;;
15608;SDS011;64278;45.642;13.756;2023-05-27T05:55:02;5.70;;;5.20;;
15608;SDS011;64278;45.642;13.756;2023-05-27T05:57:28;5.70;;;5.20;;
15608;SDS011;64278;45.642;13.756;2023-05-27T05:59:56;6.18;;;5.53;;
15608;SDS011;64278;45.642;13.756;2023-05-27T06:02:22;5.75;;;5.35;;
15608;SDS011;64278;45.642;13.756;2023-05-27T06:04:48;5.40;;;4.90;;
15608;SDS011;64278;45.642;13.756;2023-05-27T06:07:14;5.38;;;4.97;;
15608;SDS011;64278;45.642;13.756;2023-05-27T06:09:40;5.63;;;5.13;;
15608;SDS011;64278;45.642;13.756;2023-05-27T06:12:05;6.25;;;5.75;;
15608;SDS011;64278;45.642;13.756;2023-05-27T06:14:31;5.57;;;5.07;;
15608;SDS011;64278;45.642;13.756;2023-05-27T06:16:57;5.95;;;5.45;;
15608;SDS011;64278;45.642;13.756;2023-05-27T06:19:22;5.68;;;5.28;;
15608;SDS011;64278;45.642;13.756;2023-05-27T06:21:48;5.18;;;4.72;;
15608;SDS011;64278;45.642;13.756;2023-05-27T06:24:14;5.70;;;5.20;;
15608;SDS011;64278;45.642;13.756;2023-05-27T06:26:40;5.40;;;5.00;;
15608;SDS011;64278;45.642;13.756;2023-05-27T06:29:06;6.00;;;5.50;;
15608;SDS011;64278;45.642;13.756;2023-05-27T06:31:31;5.63;;;5.13;;
15608;SDS011;64278;45.642;13.756;2023-05-27T06:33:58;5.50;;;5.10;;
15608;SDS011;64278;45.642;13.756;2023-05-27T06:36:24;5.90;;;5.32;;
15608;SDS011;64278;45.642;13.756;2023-05-27T06:38:50;6.60;;;6.00;;
15608;SDS011;64278;45.642;13.756;2023-05-27T06:41:16;5.80;;;5.30;;
15608;SDS011;64278;45.642;13.756;2023-05-27T06:43:42;6.65;;;5.90;;
15608;SDS011;64278;45.642;13.756;2023-05-27T06:46:07;5.72;;;5.30;;
15608;SDS011;64278;45.642;13.756;2023-05-27T06:48:33;5.65;;;5.10;;
15608;SDS011;64278;45.642;13.756;2023-05-27T06:50:59;6.28;;;5.55;;
15608;SDS011;64278;45.642;13.756;2023-05-27T06:53:25;8.00;;;6.65;;
15608;SDS011;64278;45.642;13.756;2023-05-27T06:55:50;6.78;;;5.70;;
15608;SDS011;64278;45.642;13.756;2023-05-27T06:58:16;6.85;;;5.78;;
15608;SDS011;64278;45.642;13.756;2023-05-27T07:00:42;6.70;;;6.10;;
15608;SDS011;64278;45.642;13.756;2023-05-27T07:03:07;6.57;;;5.97;;
15608;SDS011;64278;45.642;13.756;2023-05-27T07:05:33;7.40;;;6.70;;
15608;SDS011;64278;45.642;13.756;2023-05-27T07:07:59;8.20;;;6.15;;
15608;SDS011;64278;45.642;13.756;2023-05-27T07:10:24;6.55;;;5.90;;
15608;SDS011;64278;45.642;13.756;2023-05-27T07:12:50;7.85;;;6.57;;
15608;SDS011;64278;45.642;13.756;2023-05-27T07:15:16;7.57;;;6.45;;
15608;SDS011;64278;45.642;13.756;2023-05-27T07:17:42;6.78;;;6.05;;
15608;SDS011;64278;45.642;13.756;2023-05-27T07:20:07;7.00;;;6.30;;
15608;SDS011;64278;45.642;13.756;2023-05-27T07:22:34;7.45;;;6.57;;
15608;SDS011;64278;45.642;13.756;2023-05-27T07:25:00;6.70;;;6.10;;
15608;SDS011;64278;45.642;13.756;2023-05-27T07:27:25;7.78;;;6.38;;
15608;SDS011;64278;45.642;13.756;2023-05-27T07:29:51;6.90;;;6.30;;
15608;SDS011;64278;45.642;13.756;2023-05-27T07:32:17;6.53;;;5.60;;
15608;SDS011;64278;45.642;13.756;2023-05-27T07:34:42;7.50;;;6.75;;
15608;SDS011;64278;45.642;13.756;2023-05-27T07:37:08;7.63;;;6.82;;
15608;SDS011;64278;45.642;13.756;2023-05-27T07:39:34;7.65;;;6.80;;
15608;SDS011;64278;45.642;13.756;2023-05-27T07:41:59;7.80;;;7.00;;
15608;SDS011;64278;45.642;13.756;2023-05-27T07:44:25;6.85;;;6.25;;
15608;SDS011;64278;45.642;13.756;2023-05-27T07:46:53;6.95;;;6.25;;
15608;SDS011;64278;45.642;13.756;2023-05-27T07:49:18;7.80;;;7.00;;
15608;SDS011;64278;45.642;13.756;2023-05-27T07:51:44;6.80;;;6.20;;
15608;SDS011;64278;45.642;13.756;2023-05-27T07:54:10;6.78;;;6.18;;
15608;SDS011;64278;45.642;13.756;2023-05-27T07:56:35;7.13;;;6.43;;
15608;SDS011;64278;45.642;13.756;2023-05-27T07:59:01;7.95;;;7.10;;
15608;SDS011;64278;45.642;13.756;2023-05-27T08:01:27;7.70;;;6.82;;
15608;SDS011;64278;45.642;13.756;2023-05-27T08:03:57;7.78;;;6.93;;
15608;SDS011;64278;45.642;13.756;2023-05-27T08:06:24;7.47;;;6.78;;
15608;SDS011;64278;45.642;13.756;2023-05-27T08:08:50;7.05;;;6.40;;
15608;SDS011;64278;45.642;13.756;2023-05-27T08:11:16;7.78;;;7.00;;
15608;SDS011;64278;45.642;13.756;2023-05-27T08:13:41;7.38;;;6.68;;
15608;SDS011;64278;45.642;13.756;2023-05-27T08:16:07;8.45;;;7.65;;
15608;SDS011;64278;45.642;13.756;2023-05-27T08:18:34;7.45;;;6.65;;
15608;SDS011;64278;45.642;13.756;2023-05-27T08:21:00;7.28;;;6.57;;
15608;SDS011;64278;45.642;13.756;2023-05-27T08:23:26;7.80;;;6.88;;
15608;SDS011;64278;45.642;13.756;2023-05-27T08:25:52;7.18;;;6.57;;
15608;SDS011;64278;45.642;13.756;2023-05-27T08:28:17;6.72;;;6.13;;
15608;SDS011;64278;45.642;13.756;2023-05-27T08:30:43;7.15;;;6.45;;
15608;SDS011;64278;45.642;13.756;2023-05-27T08:33:09;7.65;;;6.15;;
15608;SDS011;64278;45.642;13.756;2023-05-27T08:35:34;6.72;;;6.03;;
15608;SDS011;64278;45.642;13.756;2023-05-27T08:38:00;7.85;;;7.15;;
15608;SDS011;64278;45.642;13.756;2023-05-27T08:40:26;8.73;;;6.57;;
15608;SDS011;64278;45.642;13.756;2023-05-27T08:42:52;6.63;;;6.03;;
15608;SDS011;64278;45.642;13.756;2023-05-27T08:45:18;7.57;;;6.47;;
15608;SDS011;64278;45.642;13.756;2023-05-27T08:47:43;6.75;;;6.15;;
15608;SDS011;64278;45.642;13.756;2023-05-27T08:50:10;7.15;;;6.28;;
15608;SDS011;64278;45.642;13.756;2023-05-27T08:52:42;7.10;;;6.40;;
15608;SDS011;64278;45.642;13.756;2023-05-27T08:55:14;7.22;;;6.55;;
15608;SDS011;64278;45.642;13.756;2023-05-27T08:57:42;6.68;;;6.07;;
15608;SDS011;64278;45.642;13.756;2023-05-27T09:00:11;6.82;;;6.22;;
15608;SDS011;64278;45.642;13.756;2023-05-27T09:02:39;8.35;;;6.90;;
15608;SDS011;64278;45.642;13.756;2023-05-27T09:05:05;7.28;;;6.57;;
15608;SDS011;64278;45.642;13.756;2023-05-27T09:07:33;7.30;;;6.53;;
15608;SDS011;64278;45.642;13.756;2023-05-27T09:09:58;9.27;;;6.30;;
15608;SDS011;64278;45.642;13.756;2023-05-27T09:12:25;7.00;;;6.15;;
15608;SDS011;64278;45.642;13.756;2023-05-27T09:14:52;6.90;;;6.20;;
15608;SDS011;64278;45.642;13.756;2023-05-27T09:17:24;6.90;;;6.20;;
15608;SDS011;64278;45.642;13.756;2023-05-27T09:19:53;7.03;;;6.32;;
15608;SDS011;64278;45.642;13.756;2023-05-27T09:22:28;6.32;;;5.72;;
15608;SDS011;64278;45.642;13.756;2023-05-27T09:24:55;6.47;;;5.85;;
15608;SDS011;64278;45.642;13.756;2023-05-27T09:27:28;6.88;;;6.18;;
15608;SDS011;64278;45.642;13.756;2023-05-27T09:29:55;6.50;;;6.00;;
15608;SDS011;64278;45.642;13.756;2023-05-27T09:32:25;6.93;;;6.32;;
15608;SDS011;64278;45.642;13.756;2023-05-27T09:34:52;8.73;;;6.43;;
15608;SDS011;64278;45.642;13.756;2023-05-27T09:37:24;7.20;;;5.88;;
15608;SDS011;64278;45.642;13.756;2023-05-27T09:40:06;7.15;;;6.55;;
15608;SDS011;64278;45.642;13.756;2023-05-27T09:45:18;6.50;;;6.00;;
15608;SDS011;64278;45.642;13.756;2023-05-27T09:47:49;6.43;;;5.82;;
15608;SDS011;64278;45.642;13.756;2023-05-27T09:50:16;7.30;;;6.35;;
15608;SDS011;64278;45.642;13.756;2023-05-27T09:52:44;6.85;;;5.82;;
15608;SDS011;64278;45.642;13.756;2023-05-27T09:55:11;6.50;;;5.88;;
15608;SDS011;64278;45.642;13.756;2023-05-27T09:57:38;6.63;;;5.95;;
15608;SDS011;64278;45.642;13.756;2023-05-27T10:00:05;7.38;;;6.57;;
15608;SDS011;64278;45.642;13.756;2023-05-27T10:02:42;7.25;;;6.05;;
15608;SDS011;64278;45.642;13.756;2023-05-27T10:05:12;7.80;;;6.38;;
15608;SDS011;64278;45.642;13.756;2023-05-27T10:07:39;6.47;;;5.95;;
15608;SDS011;64278;45.642;13.756;2023-05-27T10:10:07;6.55;;;5.95;;
15608;SDS011;64278;45.642;13.756;2023-05-27T10:12:41;6.57;;;5.97;;
15608;SDS011;64278;45.642;13.756;2023-05-27T10:18:10;6.00;;;5.45;;
15608;SDS011;64278;45.642;13.756;2023-05-27T10:20:51;6.05;;;5.47;;
15608;SDS011;64278;45.642;13.756;2023-05-27T10:23:19;6.20;;;5.60;;
15608;SDS011;64278;45.642;13.756;2023-05-27T10:28:25;6.57;;;5.95;;
15608;SDS011;64278;45.642;13.756;2023-05-27T10:30:51;6.15;;;5.55;;
15608;SDS011;64278;45.642;13.756;2023-05-27T10:33:25;6.55;;;5.85;;
15608;SDS011;64278;45.642;13.756;2023-05-27T10:36:03;6.60;;;6.00;;
15608;SDS011;64278;45.642;13.756;2023-05-27T10:38:32;6.90;;;6.20;;
15608;SDS011;64278;45.642;13.756;2023-05-27T10:40:59;6.78;;;6.07;;
15608;SDS011;64278;45.642;13.756;2023-05-27T10:43:27;6.78;;;5.90;;
15608;SDS011;64278;45.642;13.756;2023-05-27T10:48:37;6.68;;;5.80;;
15608;SDS011;64278;45.642;13.756;2023-05-27T10:51:04;6.85;;;6.13;;
15608;SDS011;64278;45.642;13.756;2023-05-27T10:53:31;8.18;;;5.60;;
15608;SDS011;64278;45.642;13.756;2023-05-27T10:55:59;5.80;;;5.28;;
15608;SDS011;64278;45.642;13.756;2023-05-27T10:58:26;7.85;;;5.63;;
15608;SDS011;64278;45.642;13.756;2023-05-27T11:00:53;6.55;;;5.95;;
15608;SDS011;64278;45.642;13.756;2023-05-27T11:03:24;6.60;;;6.00;;
15608;SDS011;64278;45.642;13.756;2023-05-27T11:08:24;9.93;;;6.55;;
15608;SDS011;64278;45.642;13.756;2023-05-27T11:10:50;6.10;;;5.55;;
15608;SDS011;64278;45.642;13.756;2023-05-27T11:13:15;6.93;;;6.28;;
15608;SDS011;64278;45.642;13.756;2023-05-27T11:15:41;7.00;;;6.28;;
15608;SDS011;64278;45.642;13.756;2023-05-27T11:18:07;6.38;;;5.78;;
15608;SDS011;64278;45.642;13.756;2023-05-27T11:20:37;5.78;;;5.18;;
15608;SDS011;64278;45.642;13.756;2023-05-27T11:23:03;6.32;;;5.32;;
15608;SDS011;64278;45.642;13.756;2023-05-27T11:25:39;6.13;;;5.63;;
15608;SDS011;64278;45.642;13.756;2023-05-27T11:28:15;6.75;;;6.13;;
15608;SDS011;64278;45.642;13.756;2023-05-27T11:30:44;6.20;;;5.63;;
15608;SDS011;64278;45.642;13.756;2023-05-27T11:33:10;6.85;;;6.15;;
15608;SDS011;64278;45.642;13.756;2023-05-27T11:35:36;6.65;;;5.93;;
15608;SDS011;64278;45.642;13.756;2023-05-27T11:38:01;7.45;;;5.95;;
15608;SDS011;64278;45.642;13.756;2023-05-27T11:40:33;6.57;;;5.97;;
15608;SDS011;64278;45.642;13.756;2023-05-27T11:43:03;6.00;;;5.25;;
15608;SDS011;64278;45.642;13.756;2023-05-27T11:45:29;6.25;;;5.65;;
15608;SDS011;64278;45.642;13.756;2023-05-27T11:48:01;5.82;;;5.32;;
15608;SDS011;64278;45.642;13.756;2023-05-27T11:50:27;6.20;;;5.20;;
15608;SDS011;64278;45.642;13.756;2023-05-27T11:52:57;5.53;;;5.03;;
15608;SDS011;64278;45.642;13.756;2023-05-27T11:55:27;6.25;;;4.68;;
15608;SDS011;64278;45.642;13.756;2023-05-27T11:57:54;5.40;;;5.00;;
15608;SDS011;64278;45.642;13.756;2023-05-27T12:00:20;5.68;;;5.18;;
15608;SDS011;64278;45.642;13.756;2023-05-27T12:02:46;5.80;;;5.20;;
15608;SDS011;64278;45.642;13.756;2023-05-27T12:05:11;6.75;;;5.68;;
15608;SDS011;64278;45.642;13.756;2023-05-27T12:07:37;5.85;;;5.30;;
15608;SDS011;64278;45.642;13.756;2023-05-27T12:10:06;6.10;;;5.05;;
15608;SDS011;64278;45.642;13.756;2023-05-27T12:12:33;7.60;;;5.90;;
15608;SDS011;64278;45.642;13.756;2023-05-27T12:14:59;7.47;;;5.97;;
15608;SDS011;64278;45.642;13.756;2023-05-27T12:17:26;7.40;;;5.25;;
15608;SDS011;64278;45.642;13.756;2023-05-27T12:19:51;6.45;;;5.47;;
15608;SDS011;64278;45.642;13.756;2023-05-27T12:22:17;6.72;;;5.82;;
15608;SDS011;64278;45.642;13.756;2023-05-27T12:24:42;8.30;;;6.25;;
15608;SDS011;64278;45.642;13.756;2023-05-27T12:27:08;8.13;;;7.30;;
15608;SDS011;64278;45.642;13.756;2023-05-27T12:29:34;7.95;;;7.25;;
15608;SDS011;64278;45.642;13.756;2023-05-27T12:31:59;8.57;;;7.68;;
15608;SDS011;64278;45.642;13.756;2023-05-27T12:34:25;8.75;;;7.80;;
15608;SDS011;64278;45.642;13.756;2023-05-27T12:36:51;8.25;;;7.35;;
15608;SDS011;64278;45.642;13.756;2023-05-27T12:39:17;8.52;;;7.65;;
15608;SDS011;64278;45.642;13.756;2023-05-27T12:41:42;8.50;;;7.70;;
15608;SDS011;64278;45.642;13.756;2023-05-27T12:44:08;7.82;;;7.05;;
15608;SDS011;64278;45.642;13.756;2023-05-27T12:46:33;8.20;;;7.40;;
15608;SDS011;64278;45.642;13.756;2023-05-27T12:48:59;8.88;;;8.00;;
15608;SDS011;64278;45.642;13.756;2023-05-27T12:51:25;8.75;;;7.95;;
15608;SDS011;64278;45.642;13.756;2023-05-27T12:53:51;8.80;;;8.00;;
15608;SDS011;64278;45.642;13.756;2023-05-27T12:56:16;7.72;;;7.00;;
15608;SDS011;64278;45.642;13.756;2023-05-27T12:58:42;7.78;;;7.15;;
15608;SDS011;64278;45.642;13.756;2023-05-27T13:01:08;8.63;;;7.75;;
15608;SDS011;64278;45.642;13.756;2023-05-27T13:03:33;8.35;;;7.60;;
15608;SDS011;64278;45.642;13.756;2023-05-27T13:05:59;8.20;;;7.50;;
15608;SDS011;64278;45.642;13.756;2023-05-27T13:08:24;7.90;;;7.20;;
15608;SDS011;64278;45.642;13.756;2023-05-27T13:10:50;8.07;;;7.38;;
15608;SDS011;64278;45.642;13.756;2023-05-27T13:13:16;8.23;;;7.43;;
15608;SDS011;64278;45.642;13.756;2023-05-27T13:15:43;7.95;;;7.18;;
15608;SDS011;64278;45.642;13.756;2023-05-27T13:18:08;8.48;;;7.68;;
15608;SDS011;64278;45.642;13.756;2023-05-27T13:20:35;8.65;;;7.72;;
15608;SDS011;64278;45.642;13.756;2023-05-27T13:23:01;8.35;;;7.55;;
15608;SDS011;64278;45.642;13.756;2023-05-27T13:25:27;8.15;;;7.35;;
15608;SDS011;64278;45.642;13.756;2023-05-27T13:27:54;9.23;;;7.90;;
15608;SDS011;64278;45.642;13.756;2023-05-27T13:30:21;6.90;;;6.40;;
15608;SDS011;64278;45.642;13.756;2023-05-27T13:32:47;7.40;;;6.70;;
15608;SDS011;64278;45.642;13.756;2023-05-27T13:35:13;6.43;;;5.72;;
15608;SDS011;64278;45.642;13.756;2023-05-27T13:37:39;6.10;;;5.60;;
15608;SDS011;64278;45.642;13.756;2023-05-27T13:40:06;6.00;;;5.40;;
15608;SDS011;64278;45.642;13.756;2023-05-27T13:42:32;6.05;;;5.47;;
15608;SDS011;64278;45.642;13.756;2023-05-27T13:44:58;5.47;;;5.05;;
15608;SDS011;64278;45.642;13.756;2023-05-27T13:47:24;5.50;;;4.90;;
15608;SDS011;64278;45.642;13.756;2023-05-27T13:49:49;6.50;;;5.50;;
15608;SDS011;64278;45.642;13.756;2023-05-27T13:52:15;5.32;;;4.82;;
15608;SDS011;64278;45.642;13.756;2023-05-27T13:54:41;5.47;;;4.97;;
15608;SDS011;64278;45.642;13.756;2023-05-27T13:57:07;4.90;;;4.50;;
15608;SDS011;64278;45.642;13.756;2023-05-27T13:59:33;5.97;;;5.47;;
15608;SDS011;64278;45.642;13.756;2023-05-27T14:01:59;5.30;;;4.80;;
15608;SDS011;64278;45.642;13.756;2023-05-27T14:04:30;5.78;;;5.22;;
15608;SDS011;64278;45.642;13.756;2023-05-27T14:06:57;5.75;;;5.15;;
15608;SDS011;64278;45.642;13.756;2023-05-27T14:09:22;5.90;;;5.32;;
15608;SDS011;64278;45.642;13.756;2023-05-27T14:11:48;5.78;;;5.18;;
15608;SDS011;64278;45.642;13.756;2023-05-27T14:14:14;5.90;;;5.28;;
15608;SDS011;64278;45.642;13.756;2023-05-27T14:16:39;6.03;;;5.30;;
15608;SDS011;64278;45.642;13.756;2023-05-27T14:19:05;6.10;;;4.45;;
15608;SDS011;64278;45.642;13.756;2023-05-27T14:21:31;5.28;;;4.78;;
15608;SDS011;64278;45.642;13.756;2023-05-27T14:23:57;5.32;;;4.85;;
15608;SDS011;64278;45.642;13.756;2023-05-27T14:26:24;5.85;;;4.90;;
15608;SDS011;64278;45.642;13.756;2023-05-27T14:28:51;4.97;;;4.47;;
15608;SDS011;64278;45.642;13.756;2023-05-27T14:31:16;5.78;;;5.18;;
15608;SDS011;64278;45.642;13.756;2023-05-27T14:33:42;5.35;;;4.85;;
15608;SDS011;64278;45.642;13.756;2023-05-27T14:36:08;5.68;;;5.18;;
15608;SDS011;64278;45.642;13.756;2023-05-27T14:38:34;7.63;;;5.32;;
15608;SDS011;64278;45.642;13.756;2023-05-27T14:41:00;6.05;;;5.43;;
15608;SDS011;64278;45.642;13.756;2023-05-27T14:43:26;6.63;;;5.93;;
15608;SDS011;64278;45.642;13.756;2023-05-27T14:45:51;7.75;;;5.53;;
15608;SDS011;64278;45.642;13.756;2023-05-27T14:48:17;5.55;;;5.05;;
15608;SDS011;64278;45.642;13.756;2023-05-27T14:50:43;6.05;;;5.30;;